createdAt,value
2022-08-01T00:00:09.912Z,5.00
2022-08-01T00:03:01.902Z,5.30
2022-08-01T00:05:34.140Z,5.20
2022-08-01T00:08:06.289Z,5.20
2022-08-01T00:10:38.237Z,4.60
2022-08-01T00:13:10.490Z,5.40
2022-08-01T00:15:51.801Z,4.60
2022-08-01T00:18:26.233Z,4.90
2022-08-01T00:20:57.841Z,5.10
2022-08-01T00:23:30.080Z,5.30
2022-08-01T00:26:02.260Z,5.90
2022-08-01T00:28:34.052Z,4.50
2022-08-01T00:31:06.178Z,5.60
2022-08-01T00:33:38.002Z,5.30
2022-08-01T00:36:12.266Z,4.80
2022-08-01T00:38:44.592Z,5.10
2022-08-01T00:41:16.339Z,5.50
2022-08-01T00:43:48.012Z,6.10
2022-08-01T00:46:19.770Z,5.30
2022-08-01T00:48:51.628Z,5.40
2022-08-01T00:51:24.321Z,5.30
2022-08-01T00:56:28.682Z,5.80
2022-08-01T00:59:00.480Z,5.30
2022-08-01T01:01:39.853Z,5.40
2022-08-01T01:04:11.915Z,5.80
2022-08-01T01:06:51.016Z,6.20
2022-08-01T01:09:32.884Z,6.20
2022-08-01T01:12:15.586Z,6.70
2022-08-01T01:17:49.748Z,6.90
2022-08-01T01:20:23.614Z,7.90
2022-08-01T01:23:17.012Z,8.10
2022-08-01T01:26:04.261Z,9.10
2022-08-01T01:28:48.195Z,9.70
2022-08-01T01:31:23.673Z,10.60
2022-08-01T01:33:57.416Z,11.00
2022-08-01T01:36:32.067Z,12.80
2022-08-01T01:39:04.526Z,13.40
2022-08-01T01:41:38.464Z,12.50
2022-08-01T01:44:12.511Z,11.00
2022-08-01T01:46:45.981Z,10.60
2022-08-01T01:49:21.692Z,8.90
2022-08-01T01:52:02.632Z,8.50
2022-08-01T01:54:38.905Z,7.60
2022-08-01T01:57:13.910Z,7.50
2022-08-01T01:59:48.411Z,7.00
2022-08-01T02:02:21.077Z,6.10
2022-08-01T02:04:54.052Z,6.50
2022-08-01T02:07:28.441Z,6.60
2022-08-01T02:10:03.011Z,5.90
2022-08-01T02:12:38.396Z,5.70
2022-08-01T02:15:13.998Z,6.60
2022-08-01T02:17:50.868Z,5.80
2022-08-01T02:20:23.243Z,6.70
2022-08-01T02:22:59.840Z,6.40
2022-08-01T02:25:38.613Z,6.70
2022-08-01T02:28:14.426Z,6.90
2022-08-01T02:30:50.810Z,6.60
2022-08-01T02:33:26.773Z,5.90
2022-08-01T02:36:30.094Z,6.10
2022-08-01T02:38:56.692Z,6.30
2022-08-01T02:41:32.708Z,6.30
2022-08-01T02:44:07.272Z,6.90
2022-08-01T02:46:47.483Z,6.60
2022-08-01T02:49:22.085Z,6.40
2022-08-01T02:51:56.441Z,6.40
2022-08-01T02:54:31.107Z,6.80
2022-08-01T02:57:05.474Z,6.90
2022-08-01T02:59:41.700Z,6.60
2022-08-01T03:02:16.258Z,6.50
2022-08-01T03:04:52.624Z,6.40
2022-08-01T03:07:34.639Z,6.00
2022-08-01T03:10:12.604Z,6.20
2022-08-01T03:12:48.255Z,6.70
2022-08-01T03:15:21.564Z,6.60
2022-08-01T03:17:54.926Z,7.50
2022-08-01T03:20:28.791Z,6.40
2022-08-01T03:23:02.096Z,6.20
2022-08-01T03:25:36.867Z,6.40
2022-08-01T03:28:11.205Z,7.50
2022-08-01T03:30:44.794Z,7.60
2022-08-01T03:33:17.279Z,6.30
2022-08-01T03:35:54.734Z,6.40
2022-08-01T03:38:29.157Z,7.30
2022-08-01T03:41:05.206Z,6.80
2022-08-01T03:43:42.657Z,6.40
2022-08-01T03:46:21.152Z,6.60
2022-08-01T03:48:57.126Z,7.00
2022-08-01T03:51:29.642Z,7.10
2022-08-01T03:54:06.173Z,7.00
2022-08-01T03:56:39.405Z,7.90
2022-08-01T03:59:13.037Z,7.00
2022-08-01T04:01:45.521Z,7.20
2022-08-01T04:04:18.051Z,6.80
2022-08-01T04:06:52.186Z,6.70
2022-08-01T04:09:24.429Z,6.60
2022-08-01T04:11:56.078Z,7.00
2022-08-01T04:14:28.586Z,7.60
2022-08-01T04:19:30.565Z,6.80
2022-08-01T04:22:04.076Z,6.40
2022-08-01T04:24:38.325Z,6.90
2022-08-01T04:27:15.517Z,6.80
2022-08-01T04:29:51.435Z,7.20
2022-08-01T04:32:24.762Z,6.50
2022-08-01T04:35:01.023Z,6.50
2022-08-01T04:37:33.693Z,7.50
2022-08-01T04:42:36.358Z,7.00
2022-08-01T04:45:10.830Z,7.60
2022-08-01T04:47:44.542Z,7.60
2022-08-01T04:50:16.820Z,8.00
2022-08-01T04:52:48.596Z,7.40
2022-08-01T04:55:20.838Z,8.40
2022-08-01T04:57:54.172Z,7.90
2022-08-01T05:00:25.880Z,7.70
2022-08-01T05:02:57.885Z,7.60
2022-08-01T05:05:31.475Z,7.70
2022-08-01T05:08:03.161Z,7.50
2022-08-01T05:10:34.844Z,7.90
2022-08-01T05:13:07.545Z,8.40
2022-08-01T05:18:10.765Z,8.00
2022-08-01T05:20:42.677Z,8.40
2022-08-01T05:23:23.221Z,7.80
2022-08-01T05:26:06.369Z,8.50
2022-08-01T05:28:38.105Z,8.80
2022-08-01T05:31:09.803Z,8.20
2022-08-01T05:33:41.546Z,11.10
2022-08-01T05:36:13.570Z,8.00
2022-08-01T05:38:45.322Z,9.50
2022-08-01T05:41:17.053Z,9.00
2022-08-01T05:43:49.046Z,8.10
2022-08-01T05:46:20.812Z,8.40
2022-08-01T05:48:55.411Z,8.60
2022-08-01T05:51:27.576Z,8.40
2022-08-01T05:53:59.611Z,7.90
2022-08-01T05:56:32.463Z,7.40
2022-08-01T05:59:04.502Z,8.40
2022-08-01T06:01:38.500Z,8.20
2022-08-01T06:04:10.407Z,8.40
2022-08-01T06:06:42.462Z,8.30
2022-08-01T06:09:14.378Z,9.00
2022-08-01T06:11:46.577Z,8.40
2022-08-01T06:14:18.671Z,8.90
2022-08-01T06:16:50.920Z,8.70
2022-08-01T06:19:22.552Z,7.80
2022-08-01T06:21:54.269Z,9.40
2022-08-01T06:24:26.121Z,9.30
2022-08-01T06:26:57.957Z,9.50
2022-08-01T06:29:32.079Z,10.10
2022-08-01T06:32:04.522Z,8.90
2022-08-01T06:37:07.313Z,9.00
2022-08-01T06:39:40.116Z,10.80
2022-08-01T06:42:11.982Z,9.50
2022-08-01T06:44:43.677Z,11.20
2022-08-01T06:47:15.773Z,10.40
2022-08-01T06:49:47.609Z,11.10
2022-08-01T06:52:19.305Z,10.00
2022-08-01T06:54:51.173Z,9.90
2022-08-01T06:57:22.989Z,11.20
2022-08-01T06:59:55.148Z,10.90
2022-08-01T07:02:27.187Z,10.00
2022-08-01T07:05:01.436Z,10.70
2022-08-01T07:07:35.749Z,11.30
2022-08-01T07:10:09.916Z,11.60
2022-08-01T07:12:42.027Z,11.20
2022-08-01T07:15:14.865Z,11.20
2022-08-01T07:17:46.922Z,12.40
2022-08-01T07:20:19.127Z,11.70
2022-08-01T07:22:51.401Z,10.60
2022-08-01T07:25:23.471Z,11.90
2022-08-01T07:27:55.203Z,9.70
2022-08-01T07:30:27.741Z,10.70
2022-08-01T07:32:59.893Z,10.90
2022-08-01T07:35:31.735Z,10.90
2022-08-01T07:38:03.751Z,11.20
2022-08-01T07:40:35.699Z,11.30
2022-08-01T07:43:07.471Z,13.00
2022-08-01T07:45:39.139Z,10.90
2022-08-01T07:48:18.348Z,10.60
2022-08-01T07:50:50.187Z,11.70
2022-08-01T07:53:21.945Z,11.30
2022-08-01T07:55:53.955Z,11.30
2022-08-01T07:58:25.621Z,11.60
2022-08-01T08:00:57.319Z,11.80
2022-08-01T08:03:29.198Z,12.30
2022-08-01T08:06:01.171Z,11.50
2022-08-01T08:08:35.578Z,13.60
2022-08-01T08:11:07.411Z,13.40
2022-08-01T08:13:38.997Z,11.60
2022-08-01T08:16:10.731Z,12.40
2022-08-01T08:18:42.517Z,11.20
2022-08-01T08:21:14.246Z,12.10
2022-08-01T08:24:03.969Z,12.10
2022-08-01T08:26:35.809Z,11.70
2022-08-01T08:29:07.510Z,11.20
2022-08-01T08:31:51.947Z,12.60
2022-08-01T08:34:25.228Z,11.70
2022-08-01T08:36:58.888Z,11.30
2022-08-01T08:39:32.658Z,11.40
2022-08-01T08:42:14.613Z,11.20
2022-08-01T08:44:46.681Z,12.70
2022-08-01T08:47:20.772Z,10.90
2022-08-01T08:49:56.090Z,11.80
2022-08-01T08:52:28.309Z,10.70
2022-08-01T08:55:01.340Z,10.20
2022-08-01T08:57:34.265Z,11.70
2022-08-01T09:00:07.979Z,11.40
2022-08-01T09:02:42.270Z,11.30
2022-08-01T09:05:19.318Z,12.70
2022-08-01T09:07:51.589Z,11.10
2022-08-01T09:10:23.843Z,12.00
2022-08-01T09:13:12.116Z,10.90
2022-08-01T09:15:47.304Z,12.00
2022-08-01T09:18:34.842Z,11.70
2022-08-01T09:21:16.296Z,11.70
2022-08-01T09:23:54.201Z,12.00
2022-08-01T09:26:39.757Z,11.50
2022-08-01T09:29:37.534Z,11.00
2022-08-01T09:32:13.945Z,14.30
2022-08-01T09:34:48.132Z,11.40
2022-08-01T09:37:37.536Z,10.10
2022-08-01T09:40:12.632Z,10.90
2022-08-01T09:42:49.795Z,9.70
2022-08-01T09:48:29.540Z,10.40
2022-08-01T09:51:07.188Z,10.80
2022-08-01T09:53:51.147Z,9.40
2022-08-01T09:56:24.792Z,6.30
2022-08-01T09:59:01.963Z,5.70
2022-08-01T10:01:47.413Z,5.30
2022-08-01T10:04:21.214Z,5.00
2022-08-01T10:06:55.443Z,4.60
2022-08-01T10:09:40.721Z,4.70
2022-08-01T10:12:16.362Z,5.40
2022-08-01T10:14:51.278Z,5.20
2022-08-01T10:17:26.152Z,5.30
2022-08-01T10:20:30.512Z,5.40
2022-08-01T10:23:06.382Z,5.50
2022-08-01T10:25:46.588Z,4.30
2022-08-01T10:28:24.035Z,3.90
2022-08-01T10:30:59.154Z,3.90
2022-08-01T10:33:51.172Z,3.60
2022-08-01T10:36:26.482Z,4.00
2022-08-01T10:38:59.383Z,3.60
2022-08-01T10:41:31.734Z,4.00
2022-08-01T10:44:05.692Z,4.10
2022-08-01T10:46:40.184Z,3.90
2022-08-01T10:49:19.585Z,4.60
2022-08-01T10:51:54.706Z,3.60
2022-08-01T10:54:29.169Z,3.60
2022-08-01T10:57:03.811Z,4.10
2022-08-01T10:59:50.801Z,4.10
2022-08-01T11:02:35.657Z,3.70
2022-08-01T11:05:14.198Z,3.90
2022-08-01T11:07:55.058Z,3.70
2022-08-01T11:10:33.321Z,4.30
2022-08-01T11:13:08.464Z,4.10
2022-08-01T11:15:50.203Z,4.20
2022-08-01T11:18:37.796Z,4.50
2022-08-01T11:21:56.405Z,4.60
2022-08-01T11:24:02.208Z,4.70
2022-08-01T11:26:33.940Z,4.90
2022-08-01T11:29:22.411Z,5.50
2022-08-01T11:31:54.828Z,5.30
2022-08-01T11:34:58.244Z,5.50
2022-08-01T11:37:31.149Z,10.60
2022-08-01T11:40:25.007Z,6.30
2022-08-01T11:43:19.754Z,5.00
2022-08-01T11:45:54.199Z,5.10
2022-08-01T11:48:28.926Z,4.70
2022-08-01T11:51:03.074Z,5.20
2022-08-01T11:53:34.813Z,5.80
2022-08-01T11:56:09.756Z,5.20
2022-08-01T11:58:41.530Z,5.30
2022-08-01T12:01:16.468Z,5.00
2022-08-01T12:03:57.528Z,5.50
2022-08-01T12:06:32.118Z,5.10
2022-08-01T12:09:21.360Z,5.80
2022-08-01T12:11:54.352Z,5.10
2022-08-01T12:14:26.770Z,5.50
2022-08-01T12:16:58.974Z,5.40
2022-08-01T12:19:31.772Z,5.80
2022-08-01T12:22:12.967Z,5.40
2022-08-01T12:24:45.541Z,5.40
2022-08-01T12:27:28.135Z,4.70
2022-08-01T12:32:35.937Z,5.40
2022-08-01T12:35:11.604Z,5.10
2022-08-01T12:37:46.515Z,4.90
2022-08-01T12:40:20.609Z,4.20
2022-08-01T12:42:54.705Z,5.20
2022-08-01T12:45:28.699Z,4.80
2022-08-01T12:48:02.186Z,4.00
2022-08-01T12:50:36.583Z,4.50
2022-08-01T12:53:10.592Z,4.20
2022-08-01T12:55:58.551Z,3.90
2022-08-01T12:58:36.121Z,3.70
2022-08-01T13:01:09.530Z,3.40
2022-08-01T13:03:41.997Z,3.70
2022-08-01T13:06:18.214Z,3.70
2022-08-01T13:08:50.167Z,3.50
2022-08-01T13:11:22.392Z,3.90
2022-08-01T13:13:54.777Z,3.80
2022-08-01T13:19:18.643Z,3.50
2022-08-01T13:22:01.097Z,3.40
2022-08-01T13:24:34.901Z,3.10
2022-08-01T13:27:07.587Z,3.20
2022-08-01T13:29:42.475Z,3.90
2022-08-01T13:32:28.061Z,4.20
2022-08-01T13:35:10.364Z,3.80
2022-08-01T13:37:44.278Z,5.10
2022-08-01T13:40:27.445Z,4.30
2022-08-01T13:42:59.237Z,4.60
2022-08-01T13:45:31.289Z,5.20
2022-08-01T13:48:13.064Z,5.00
2022-08-01T13:51:02.225Z,4.40
2022-08-01T13:53:42.624Z,4.90
2022-08-01T13:56:14.611Z,5.40
2022-08-01T13:58:46.727Z,5.00
2022-08-01T14:01:18.804Z,5.00
2022-08-01T14:03:52.064Z,5.80
2022-08-01T14:06:24.383Z,4.90
2022-08-01T14:08:56.152Z,5.80
2022-08-01T14:11:30.315Z,5.50
2022-08-01T14:14:09.571Z,6.40
2022-08-01T14:16:41.284Z,6.10
2022-08-01T14:19:14.050Z,6.30
2022-08-01T14:21:45.843Z,7.60
2022-08-01T14:24:18.835Z,5.60
2022-08-01T14:26:50.683Z,5.60
2022-08-01T14:29:22.447Z,5.90
2022-08-01T14:31:54.188Z,5.40
2022-08-01T14:34:25.931Z,4.70
2022-08-01T14:36:57.667Z,4.80
2022-08-01T14:39:29.526Z,5.40
2022-08-01T14:42:01.708Z,5.00
2022-08-01T14:44:33.483Z,4.10
2022-08-01T14:47:21.337Z,4.20
2022-08-01T14:49:55.323Z,4.40
2022-08-01T14:52:27.404Z,4.30
2022-08-01T14:54:59.874Z,4.20
2022-08-01T14:57:32.019Z,4.00
2022-08-01T15:00:05.810Z,4.80
2022-08-01T15:02:37.639Z,4.40
2022-08-01T15:05:11.310Z,4.90
2022-08-01T15:07:52.308Z,4.00
2022-08-01T15:10:25.918Z,4.50
2022-08-01T15:12:59.532Z,4.30
2022-08-01T15:15:31.860Z,4.30
2022-08-01T15:20:34.384Z,3.90
2022-08-01T15:23:07.238Z,4.10
2022-08-01T15:25:41.899Z,3.80
2022-08-01T15:28:15.706Z,3.40
2022-08-01T15:30:47.712Z,3.20
2022-08-01T15:33:19.432Z,3.00
2022-08-01T15:35:53.083Z,3.20
2022-08-01T15:38:25.109Z,2.90
2022-08-01T15:40:56.900Z,3.00
2022-08-01T15:43:28.652Z,2.80
2022-08-01T15:46:01.242Z,3.00
2022-08-01T15:48:38.278Z,4.80
2022-08-01T15:51:11.949Z,3.40
2022-08-01T15:53:43.871Z,3.40
2022-08-01T15:56:16.069Z,3.90
2022-08-01T15:58:47.985Z,4.00
2022-08-01T16:01:20.429Z,3.90
2022-08-01T16:06:22.734Z,3.70
2022-08-01T16:08:54.880Z,3.90
2022-08-01T16:11:27.954Z,3.50
2022-08-01T16:14:00.686Z,3.30
2022-08-01T16:16:32.606Z,3.10
2022-08-01T16:19:05.765Z,3.20
2022-08-01T16:21:37.477Z,3.50
2022-08-01T16:24:11.866Z,3.20
2022-08-01T16:26:44.128Z,3.90
2022-08-01T16:29:15.880Z,3.80
2022-08-01T16:32:08.093Z,3.70
2022-08-01T16:34:46.666Z,4.00
2022-08-01T16:37:18.910Z,4.60
2022-08-01T16:39:50.721Z,4.10
2022-08-01T16:42:23.203Z,4.40
2022-08-01T16:45:00.305Z,3.40
2022-08-01T16:47:32.022Z,4.30
2022-08-01T16:50:06.213Z,3.60
2022-08-01T16:52:41.778Z,5.50
2022-08-01T16:55:14.144Z,4.60
2022-08-01T16:57:46.060Z,4.20
2022-08-01T17:00:22.729Z,4.40
2022-08-01T17:02:54.981Z,4.50
2022-08-01T17:05:28.612Z,4.70
2022-08-01T17:08:00.385Z,5.50
2022-08-01T17:10:32.223Z,4.70
2022-08-01T17:13:05.140Z,5.20
2022-08-01T17:15:37.541Z,4.80
2022-08-01T17:18:09.817Z,4.80
2022-08-01T17:20:48.523Z,4.80
2022-08-01T17:23:20.554Z,4.80
2022-08-01T17:25:52.831Z,4.90
2022-08-01T17:28:26.262Z,5.10
2022-08-01T17:30:58.214Z,4.80
2022-08-01T17:33:45.583Z,4.90
2022-08-01T17:36:21.114Z,7.10
2022-08-01T17:38:52.801Z,6.20
2022-08-01T17:41:24.650Z,5.80
2022-08-01T17:43:56.905Z,5.80
2022-08-01T17:46:28.739Z,30.20
2022-08-01T17:49:01.873Z,5.50
2022-08-01T17:51:37.039Z,16.80
2022-08-01T17:54:11.640Z,5.50
2022-08-01T17:56:46.083Z,5.40
2022-08-01T17:59:18.012Z,5.10
2022-08-01T18:01:49.767Z,5.40
2022-08-01T18:04:21.509Z,5.80
2022-08-01T18:06:58.470Z,5.30
2022-08-01T18:09:45.676Z,5.50
2022-08-01T18:12:23.379Z,5.10
2022-08-01T18:15:03.425Z,17.10
2022-08-01T18:17:35.918Z,5.40
2022-08-01T18:22:39.452Z,5.30
2022-08-01T18:25:12.112Z,5.00
2022-08-01T18:30:35.458Z,5.50
2022-08-01T18:33:07.365Z,5.90
2022-08-01T18:35:51.929Z,5.80
2022-08-01T18:38:25.085Z,4.60
2022-08-01T18:40:57.646Z,4.00
2022-08-01T18:43:29.806Z,4.10
2022-08-01T18:46:03.093Z,5.00
2022-08-01T18:48:35.062Z,4.10
2022-08-01T18:51:08.531Z,4.10
2022-08-01T18:53:43.434Z,4.00
2022-08-01T18:56:19.113Z,3.60
2022-08-01T18:58:51.567Z,4.20
2022-08-01T19:01:23.894Z,4.30
2022-08-01T19:03:55.925Z,4.30
2022-08-01T19:06:28.396Z,6.50
2022-08-01T19:11:35.509Z,5.50
2022-08-01T19:14:08.089Z,5.30
2022-08-01T19:19:10.475Z,6.10
2022-08-01T19:21:44.910Z,6.00
2022-08-01T19:24:22.618Z,6.30
2022-08-01T19:26:57.355Z,6.50
2022-08-01T19:29:36.218Z,6.30
2022-08-01T19:32:11.231Z,5.90
2022-08-01T19:34:54.684Z,7.10
2022-08-01T19:37:27.513Z,7.20
2022-08-01T19:39:59.875Z,7.40
2022-08-01T19:42:31.855Z,6.40
2022-08-01T19:45:06.068Z,6.80
2022-08-01T19:47:51.764Z,6.70
2022-08-01T19:50:30.378Z,10.70
2022-08-01T19:53:04.853Z,6.90
2022-08-01T19:55:39.902Z,7.20
2022-08-01T19:58:28.816Z,7.50
2022-08-01T20:01:00.772Z,7.10
2022-08-01T20:03:35.331Z,7.70
2022-08-01T20:06:07.863Z,7.60
2022-08-01T20:08:41.489Z,8.00
2022-08-01T20:11:14.612Z,7.70
2022-08-01T20:13:49.540Z,7.70
2022-08-01T20:16:21.706Z,8.50
2022-08-01T20:18:53.917Z,8.20
2022-08-01T20:21:27.658Z,8.70
2022-08-01T20:24:03.304Z,8.30
2022-08-01T20:26:37.525Z,8.60
2022-08-01T20:29:09.250Z,7.60
2022-08-01T20:31:44.275Z,7.80
2022-08-01T20:34:21.284Z,7.80
2022-08-01T20:36:56.481Z,8.10
2022-08-01T20:39:31.126Z,8.40
2022-08-01T20:42:04.767Z,8.90
2022-08-01T20:44:37.204Z,7.80
2022-08-01T20:47:09.645Z,8.30
2022-08-01T20:49:44.475Z,9.30
2022-08-01T20:52:17.102Z,8.40
2022-08-01T20:54:48.884Z,7.60
2022-08-01T20:57:25.443Z,8.20
2022-08-01T21:00:02.779Z,7.90
2022-08-01T21:02:47.990Z,7.70
2022-08-01T21:05:29.327Z,8.20
2022-08-01T21:08:08.800Z,7.00
2022-08-01T21:10:45.470Z,7.60
2022-08-01T21:13:25.660Z,8.00
2022-08-01T21:16:23.999Z,8.00
2022-08-01T21:19:18.619Z,8.10
2022-08-01T21:21:56.129Z,7.90
2022-08-01T21:24:38.405Z,7.40
2022-08-01T21:27:10.731Z,9.00
2022-08-01T21:32:16.035Z,7.90
2022-08-01T21:34:51.914Z,8.40
2022-08-01T21:37:24.535Z,8.70
2022-08-01T21:39:58.869Z,8.70
2022-08-01T21:42:31.038Z,8.40
2022-08-01T21:45:05.875Z,8.10
2022-08-01T21:47:38.953Z,8.80
2022-08-01T21:50:11.184Z,8.20
2022-08-01T21:52:47.074Z,8.90
2022-08-01T21:55:35.102Z,8.50
2022-08-01T21:58:28.242Z,9.20
2022-08-01T22:01:07.956Z,8.20
2022-08-01T22:03:46.219Z,8.10
2022-08-01T22:06:20.400Z,8.40
2022-08-01T22:08:57.644Z,8.30
2022-08-01T22:11:32.681Z,7.60
2022-08-01T22:14:06.225Z,8.10
2022-08-01T22:16:40.851Z,8.80
2022-08-01T22:19:37.568Z,8.70
2022-08-01T22:22:29.111Z,7.90
2022-08-01T22:25:01.097Z,8.70
2022-08-01T22:28:06.673Z,7.80
2022-08-01T22:30:28.570Z,8.60
2022-08-01T22:33:15.398Z,7.80
2022-08-01T22:35:50.864Z,9.20
2022-08-01T22:38:27.084Z,8.40
2022-08-01T22:41:05.415Z,7.90
2022-08-01T22:43:44.163Z,8.60
2022-08-01T22:46:26.628Z,8.50
2022-08-01T22:49:09.703Z,8.50
2022-08-01T22:51:54.844Z,8.20
2022-08-01T22:54:36.218Z,8.20
2022-08-01T22:57:16.255Z,8.20
2022-08-01T22:59:58.633Z,7.80
2022-08-01T23:02:32.825Z,8.70
2022-08-01T23:05:08.162Z,8.00
2022-08-01T23:07:46.330Z,8.50
2022-08-01T23:10:20.446Z,8.20
2022-08-01T23:12:53.416Z,8.10
2022-08-01T23:15:26.930Z,8.40
2022-08-01T23:18:00.989Z,9.00
2022-08-01T23:20:35.071Z,8.60
2022-08-01T23:23:07.522Z,7.90
2022-08-01T23:25:39.939Z,8.00
2022-08-01T23:28:13.548Z,8.20
2022-08-01T23:30:46.125Z,7.80
2022-08-01T23:35:48.354Z,7.60
2022-08-01T23:38:20.340Z,7.50
2022-08-01T23:40:52.407Z,8.00
2022-08-01T23:43:24.550Z,7.10
2022-08-01T23:46:04.533Z,7.30
2022-08-01T23:48:38.599Z,7.40
2022-08-01T23:51:17.286Z,7.70
2022-08-01T23:53:56.049Z,8.20
2022-08-01T23:56:27.840Z,7.50
2022-08-01T23:58:59.670Z,7.20
